createdAt,value
2023-04-01T00:01:50.509Z,9.02
2023-04-01T00:04:37.339Z,8.95
2023-04-01T00:07:24.130Z,9.01
2023-04-01T00:10:12.853Z,9.04
2023-04-01T00:12:59.188Z,9.14
2023-04-01T00:15:46.602Z,9.01
2023-04-01T00:18:33.155Z,9.02
2023-04-01T00:21:21.463Z,9.06
2023-04-01T00:24:07.890Z,9.24
2023-04-01T00:26:54.497Z,9.14
2023-04-01T00:29:45.962Z,9.31
2023-04-01T00:32:32.996Z,9.23
2023-04-01T00:35:19.405Z,9.24
2023-04-01T00:38:07.223Z,9.32
2023-04-01T00:40:59.322Z,8.99
2023-04-01T00:43:48.822Z,9.39
2023-04-01T00:46:36.620Z,9.51
2023-04-01T00:49:27.737Z,9.48
2023-04-01T00:52:18.624Z,9.58
2023-04-01T00:55:07.421Z,9.60
2023-04-01T00:57:58.190Z,9.58
2023-04-01T01:00:47.443Z,9.57
2023-04-01T01:03:34.131Z,9.46
2023-04-01T01:06:49.978Z,9.60
2023-04-01T01:10:08.873Z,9.56
2023-04-01T01:13:26.511Z,9.51
2023-04-01T01:16:37.888Z,9.49
2023-04-01T01:19:49.317Z,9.53
2023-04-01T01:23:01.395Z,9.56
2023-04-01T01:26:29.533Z,9.54
2023-04-01T01:29:16.320Z,9.61
2023-04-01T01:32:41.063Z,9.62
2023-04-01T01:35:34.756Z,9.60
2023-04-01T01:38:28.299Z,9.64
2023-04-01T01:41:22.977Z,9.62
2023-04-01T01:44:13.532Z,9.60
2023-04-01T01:47:01.244Z,9.72
2023-04-01T01:49:47.970Z,9.72
2023-04-01T01:52:35.971Z,9.71
2023-04-01T01:55:30.476Z,9.76
2023-04-01T01:58:33.505Z,9.71
2023-04-01T02:01:30.664Z,9.58
2023-04-01T02:04:24.561Z,9.66
2023-04-01T02:07:21.150Z,9.64
2023-04-01T02:10:08.725Z,9.60
2023-04-01T02:13:02.234Z,9.58
2023-04-01T02:15:51.779Z,9.53
2023-04-01T02:18:39.961Z,9.59
2023-04-01T02:21:30.965Z,9.60
2023-04-01T02:24:22.244Z,9.47
2023-04-01T02:27:11.021Z,9.53
2023-04-01T02:29:58.879Z,9.44
2023-04-01T02:32:47.071Z,9.49
2023-04-01T02:35:37.604Z,9.43
2023-04-01T02:38:24.468Z,9.24
2023-04-01T02:41:11.016Z,9.35
2023-04-01T02:43:59.450Z,9.36
2023-04-01T02:46:46.109Z,9.35
2023-04-01T02:49:32.921Z,9.29
2023-04-01T02:52:19.315Z,9.19
2023-04-01T02:55:08.081Z,9.15
2023-04-01T02:57:54.877Z,9.01
2023-04-01T03:00:41.284Z,8.82
2023-04-01T03:03:27.749Z,8.80
2023-04-01T03:06:16.647Z,8.79
2023-04-01T03:09:04.289Z,8.76
2023-04-01T03:11:50.843Z,8.77
2023-04-01T03:14:38.142Z,8.75
2023-04-01T03:17:24.530Z,8.78
2023-04-01T03:20:12.180Z,8.69
2023-04-01T03:22:58.858Z,8.59
2023-04-01T03:25:47.060Z,8.48
2023-04-01T03:28:35.317Z,8.49
2023-04-01T03:31:23.274Z,8.45
2023-04-01T03:34:13.768Z,8.40
2023-04-01T03:37:01.109Z,8.31
2023-04-01T03:39:47.899Z,8.31
2023-04-01T03:42:34.975Z,8.22
2023-04-01T03:45:21.713Z,8.17
2023-04-01T03:48:08.251Z,8.05
2023-04-01T03:50:55.084Z,8.15
2023-04-01T03:53:43.120Z,8.08
2023-04-01T03:56:32.109Z,8.12
2023-04-01T03:59:18.721Z,8.10
2023-04-01T04:02:05.992Z,8.15
2023-04-01T04:04:52.761Z,8.23
2023-04-01T04:07:39.292Z,8.32
2023-04-01T04:10:30.131Z,8.22
2023-04-01T04:13:16.829Z,8.35
2023-04-01T04:16:11.033Z,8.22
2023-04-01T04:19:01.336Z,8.26
2023-04-01T04:21:47.597Z,8.35
2023-04-01T04:24:36.030Z,8.41
2023-04-01T04:27:29.068Z,8.46
2023-04-01T04:30:25.947Z,8.46
2023-04-01T04:33:12.920Z,8.53
2023-04-01T04:36:00.951Z,8.67
2023-04-01T04:38:48.781Z,8.69
2023-04-01T04:41:38.607Z,8.73
2023-04-01T04:44:28.009Z,8.46
2023-04-01T04:47:15.160Z,8.51
2023-04-01T04:50:01.707Z,8.51
2023-04-01T04:52:48.419Z,8.75
2023-04-01T04:55:35.288Z,8.60
2023-04-01T04:58:40.934Z,8.66
2023-04-01T05:01:30.431Z,8.61
2023-04-01T05:04:16.804Z,8.45
2023-04-01T05:07:03.909Z,8.44
2023-04-01T05:09:52.036Z,8.38
2023-04-01T05:12:39.796Z,8.33
2023-04-01T05:15:28.420Z,8.43
2023-04-01T05:18:16.185Z,8.55
2023-04-01T05:21:02.418Z,8.57
2023-04-01T05:23:48.675Z,8.68
2023-04-01T05:26:35.005Z,8.76
2023-04-01T05:29:21.286Z,8.89
2023-04-01T05:32:13.557Z,8.76
2023-04-01T05:35:00.380Z,8.84
2023-04-01T05:37:46.569Z,8.94
2023-04-01T05:40:33.640Z,9.00
2023-04-01T05:43:19.842Z,8.98
2023-04-01T05:46:09.392Z,9.07
2023-04-01T05:49:02.684Z,9.01
2023-04-01T05:51:49.240Z,9.14
2023-04-01T05:54:36.231Z,9.14
2023-04-01T05:57:22.693Z,9.30
2023-04-01T06:00:09.856Z,9.32
2023-04-01T06:03:00.986Z,9.32
2023-04-01T06:05:50.554Z,9.43
2023-04-01T06:08:36.893Z,9.55
2023-04-01T06:11:41.645Z,9.74
2023-04-01T06:15:16.509Z,9.95
2023-04-01T06:18:31.836Z,9.90
2023-04-01T06:22:04.301Z,9.81
2023-04-01T06:25:17.127Z,9.77
2023-04-01T06:28:25.532Z,9.72
2023-04-01T06:31:27.659Z,9.74
2023-04-01T06:34:17.270Z,9.76
2023-04-01T06:37:38.655Z,9.85
2023-04-01T06:40:46.840Z,9.89
2023-04-01T06:43:43.329Z,9.84
2023-04-01T06:47:01.472Z,9.75
2023-04-01T06:50:09.279Z,9.69
2023-04-01T06:53:33.352Z,9.65
2023-04-01T06:56:29.344Z,9.73
2023-04-01T06:59:29.755Z,9.79
2023-04-01T07:02:40.413Z,9.72
2023-04-01T07:05:32.458Z,9.85
2023-04-01T07:08:24.871Z,9.88
2023-04-01T07:11:18.703Z,9.80
2023-04-01T07:14:31.231Z,9.69
2023-04-01T07:17:27.267Z,9.80
2023-04-01T07:20:27.735Z,9.91
2023-04-01T07:23:27.395Z,9.88
2023-04-01T07:26:25.207Z,10.02
2023-04-01T07:29:15.673Z,10.10
2023-04-01T07:32:29.118Z,10.22
2023-04-01T07:35:35.074Z,10.24
2023-04-01T07:38:38.537Z,10.37
2023-04-01T07:41:41.446Z,10.78
2023-04-01T07:44:41.123Z,10.87
2023-04-01T07:47:53.433Z,11.08
2023-04-01T07:50:53.997Z,10.94
2023-04-01T07:53:48.598Z,10.69
2023-04-01T07:56:55.288Z,10.63
2023-04-01T08:00:18.147Z,10.60
2023-04-01T08:03:39.769Z,10.52
2023-04-01T08:06:44.909Z,10.40
2023-04-01T08:09:53.951Z,10.32
2023-04-01T08:13:22.065Z,10.36
2023-04-01T08:17:02.551Z,10.54
2023-04-01T08:20:23.852Z,10.58
2023-04-01T08:23:25.581Z,10.77
2023-04-01T08:26:31.038Z,10.54
2023-04-01T08:29:25.369Z,10.34
2023-04-01T08:32:13.948Z,10.11
2023-04-01T08:35:30.417Z,10.11
2023-04-01T08:38:32.280Z,9.92
2023-04-01T08:41:52.921Z,9.78
2023-04-01T08:45:41.478Z,9.53
2023-04-01T08:48:43.450Z,9.53
2023-04-01T08:51:37.605Z,9.73
2023-04-01T08:54:46.430Z,9.84
2023-04-01T08:58:02.562Z,9.96
2023-04-01T09:01:26.927Z,10.39
2023-04-01T09:04:32.646Z,10.45
2023-04-01T09:07:51.052Z,10.67
2023-04-01T09:10:42.968Z,11.03
2023-04-01T09:13:57.791Z,11.10
2023-04-01T09:17:18.918Z,11.13
2023-04-01T09:20:11.359Z,11.22
2023-04-01T09:23:11.907Z,11.15
2023-04-01T09:26:19.309Z,10.70
2023-04-01T09:29:17.880Z,10.63
2023-04-01T09:32:38.296Z,10.82
2023-04-01T09:35:36.024Z,10.85
2023-04-01T09:38:44.305Z,10.96
2023-04-01T09:41:40.805Z,10.78
2023-04-01T09:44:57.817Z,10.95
2023-04-01T09:48:02.866Z,10.94
2023-04-01T09:51:06.721Z,11.06
2023-04-01T09:54:20.684Z,11.21
2023-04-01T09:57:35.209Z,11.35
2023-04-01T10:00:51.465Z,11.27
2023-04-01T10:03:53.525Z,11.22
2023-04-01T10:06:54.992Z,11.06
2023-04-01T10:09:50.769Z,11.33
2023-04-01T10:13:05.206Z,11.22
2023-04-01T10:16:20.706Z,11.15
2023-04-01T10:19:13.174Z,11.07
2023-04-01T10:22:32.902Z,11.31
2023-04-01T10:25:50.094Z,11.32
2023-04-01T10:28:46.619Z,11.34
2023-04-01T10:32:28.862Z,11.35
2023-04-01T10:35:24.948Z,11.28
2023-04-01T10:38:24.303Z,11.29
2023-04-01T10:41:34.867Z,11.33
2023-04-01T10:45:24.709Z,11.27
2023-04-01T10:48:39.053Z,11.42
2023-04-01T10:51:37.810Z,11.45
2023-04-01T10:54:49.440Z,11.67
2023-04-01T10:58:13.403Z,11.45
2023-04-01T11:02:08.219Z,11.60
2023-04-01T11:05:31.455Z,11.50
2023-04-01T11:08:57.691Z,11.40
2023-04-01T11:12:04.958Z,11.39
2023-04-01T11:15:04.081Z,11.44
2023-04-01T11:18:03.666Z,11.85
2023-04-01T11:21:24.778Z,12.03
2023-04-01T11:24:40.688Z,11.94
2023-04-01T11:28:02.638Z,11.85
2023-04-01T11:31:11.948Z,12.11
2023-04-01T11:34:37.718Z,12.28
2023-04-01T11:38:07.949Z,12.46
2023-04-01T11:42:03.733Z,12.60
2023-04-01T11:45:29.844Z,12.19
2023-04-01T11:48:28.112Z,11.78
2023-04-01T11:51:19.043Z,11.85
2023-04-01T11:54:11.472Z,12.08
2023-04-01T11:57:16.532Z,12.47
2023-04-01T12:00:14.236Z,12.15
2023-04-01T12:03:30.224Z,12.08
2023-04-01T12:06:39.780Z,11.93
2023-04-01T12:09:41.689Z,11.83
2023-04-01T12:12:54.085Z,12.23
2023-04-01T12:16:22.518Z,12.26
2023-04-01T12:19:35.700Z,12.20
2023-04-01T12:22:48.579Z,12.07
2023-04-01T12:26:12.230Z,12.23
2023-04-01T12:29:25.855Z,12.51
2023-04-01T12:32:36.339Z,12.70
2023-04-01T12:35:57.941Z,12.33
2023-04-01T12:39:21.651Z,12.29
2023-04-01T12:42:26.488Z,12.61
2023-04-01T12:45:35.978Z,12.37
2023-04-01T12:48:26.299Z,12.35
2023-04-01T12:51:13.075Z,12.22
2023-04-01T12:54:25.237Z,12.40
2023-04-01T12:57:33.675Z,11.88
2023-04-01T13:00:41.034Z,11.73
2023-04-01T13:03:49.815Z,11.40
2023-04-01T13:07:07.509Z,10.98
2023-04-01T13:10:06.415Z,11.13
2023-04-01T13:13:11.959Z,11.18
2023-04-01T13:16:20.308Z,11.06
2023-04-01T13:19:31.667Z,10.93
2023-04-01T13:22:50.659Z,10.98
2023-04-01T13:26:06.785Z,11.33
2023-04-01T13:29:21.342Z,11.53
2023-04-01T13:32:43.216Z,11.39
2023-04-01T13:36:08.342Z,11.03
2023-04-01T13:39:13.130Z,10.66
2023-04-01T13:42:18.562Z,10.36
2023-04-01T13:45:11.260Z,10.31
2023-04-01T13:48:24.297Z,10.42
2023-04-01T13:51:16.776Z,10.63
2023-04-01T13:54:16.295Z,10.68
2023-04-01T13:57:35.207Z,10.62
2023-04-01T14:00:43.533Z,10.84
2023-04-01T14:03:40.325Z,11.05
2023-04-01T14:06:52.607Z,11.27
2023-04-01T14:10:14.498Z,11.13
2023-04-01T14:13:24.213Z,11.33
2023-04-01T14:16:23.291Z,11.39
2023-04-01T14:19:29.803Z,11.57
2023-04-01T14:22:26.681Z,11.41
2023-04-01T14:25:32.586Z,11.23
2023-04-01T14:28:32.776Z,11.27
2023-04-01T14:31:53.970Z,11.23
2023-04-01T14:34:43.257Z,11.35
2023-04-01T14:37:55.396Z,11.07
2023-04-01T14:40:57.517Z,11.21
2023-04-01T14:43:50.338Z,11.51
2023-04-01T14:46:54.800Z,11.75
2023-04-01T14:49:48.216Z,11.49
2023-04-01T14:52:39.542Z,11.94
2023-04-01T14:55:47.150Z,11.89
2023-04-01T14:58:48.522Z,11.48
2023-04-01T15:01:51.535Z,11.56
2023-04-01T15:05:24.419Z,11.34
2023-04-01T15:08:16.842Z,11.29
2023-04-01T15:11:27.905Z,11.44
2023-04-01T15:14:43.836Z,11.57
2023-04-01T15:17:59.549Z,11.58
2023-04-01T15:21:45.684Z,11.70
2023-04-01T15:25:06.515Z,11.62
2023-04-01T15:28:04.381Z,11.38
2023-04-01T15:30:58.062Z,11.42
2023-04-01T15:34:23.206Z,11.43
2023-04-01T15:37:39.384Z,11.44
2023-04-01T15:40:38.266Z,11.49
2023-04-01T15:43:33.801Z,11.42
2023-04-01T15:46:26.572Z,11.35
2023-04-01T15:49:35.339Z,11.26
2023-04-01T15:52:51.262Z,11.25
2023-04-01T15:55:49.260Z,10.91
2023-04-01T15:59:03.090Z,10.79
2023-04-01T16:01:59.929Z,10.81
2023-04-01T16:04:53.204Z,10.39
2023-04-01T16:08:13.723Z,10.78
2023-04-01T16:11:11.679Z,10.62
2023-04-01T16:14:36.083Z,10.83
2023-04-01T16:17:42.815Z,10.88
2023-04-01T16:21:06.204Z,10.84
2023-04-01T16:23:59.466Z,10.83
2023-04-01T16:27:32.434Z,10.80
2023-04-01T16:30:35.558Z,10.62
2023-04-01T16:33:41.075Z,10.63
2023-04-01T16:36:32.155Z,10.50
2023-04-01T16:39:47.409Z,10.36
2023-04-01T16:42:50.058Z,10.47
2023-04-01T16:45:50.805Z,10.47
2023-04-01T16:48:59.922Z,10.42
2023-04-01T16:51:56.032Z,10.46
2023-04-01T16:54:48.552Z,10.54
2023-04-01T16:57:50.112Z,10.57
2023-04-01T17:00:54.200Z,10.63
2023-04-01T17:03:46.690Z,10.57
2023-04-01T17:06:48.142Z,10.54
2023-04-01T17:10:01.233Z,10.60
2023-04-01T17:12:56.459Z,10.60
2023-04-01T17:16:20.769Z,10.55
2023-04-01T17:19:36.558Z,10.45
2023-04-01T17:22:42.152Z,10.44
2023-04-01T17:25:44.257Z,10.42
2023-04-01T17:28:37.109Z,10.34
2023-04-01T17:31:26.697Z,10.10
2023-04-01T17:34:24.894Z,9.91
2023-04-01T17:37:28.480Z,9.79
2023-04-01T17:40:35.495Z,9.57
2023-04-01T17:43:44.071Z,9.49
2023-04-01T17:47:09.636Z,9.37
2023-04-01T17:50:22.350Z,9.30
2023-04-01T17:53:38.236Z,9.24
2023-04-01T17:57:14.354Z,9.27
2023-04-01T18:05:07.513Z,9.23
2023-04-01T18:08:06.757Z,9.20
2023-04-01T18:10:58.885Z,9.06
2023-04-01T18:14:01.165Z,8.99
2023-04-01T18:17:01.120Z,9.07
2023-04-01T18:20:06.604Z,9.07
2023-04-01T18:23:03.763Z,9.09
2023-04-01T18:25:56.481Z,9.11
2023-04-01T18:28:50.874Z,9.16
2023-04-01T18:31:45.690Z,9.12
2023-04-01T18:34:41.748Z,9.21
2023-04-01T18:37:28.016Z,9.18
2023-04-01T18:40:28.613Z,9.00
2023-04-01T18:43:38.972Z,9.00
2023-04-01T18:46:40.528Z,9.04
2023-04-01T18:50:04.823Z,8.83
2023-04-01T18:53:10.025Z,8.57
2023-04-01T18:56:03.645Z,8.48
2023-04-01T18:59:14.738Z,8.33
2023-04-01T19:02:09.159Z,8.27
2023-04-01T19:05:35.853Z,8.22
2023-04-01T19:08:37.382Z,8.13
2023-04-01T19:11:29.490Z,8.15
2023-04-01T19:14:29.687Z,8.12
2023-04-01T19:17:47.365Z,8.16
2023-04-01T19:21:07.175Z,8.22
2023-04-01T19:24:00.408Z,8.16
2023-04-01T19:26:48.377Z,8.13
2023-04-01T19:29:49.639Z,8.11
2023-04-01T19:32:55.251Z,8.04
2023-04-01T19:35:42.977Z,7.96
2023-04-01T19:38:38.923Z,7.90
2023-04-01T19:41:36.125Z,7.87
2023-04-01T19:44:24.338Z,7.87
2023-04-01T19:47:38.922Z,7.85
2023-04-01T19:50:41.238Z,7.68
2023-04-01T19:53:55.635Z,7.85
2023-04-01T19:57:02.044Z,7.81
2023-04-01T20:00:17.721Z,7.61
2023-04-01T20:03:23.108Z,7.67
2023-04-01T20:06:25.436Z,7.91
2023-04-01T20:09:16.397Z,8.07
2023-04-01T20:12:18.290Z,7.91
2023-04-01T20:15:21.048Z,8.28
2023-04-01T20:18:18.922Z,8.52
2023-04-01T20:21:28.555Z,8.66
2023-04-01T20:24:14.800Z,8.64
2023-04-01T20:27:10.189Z,8.67
2023-04-01T20:30:11.857Z,8.77
2023-04-01T20:33:28.838Z,8.73
2023-04-01T20:36:23.684Z,8.73
2023-04-01T20:39:32.060Z,8.87
2023-04-01T20:42:55.949Z,8.87
2023-04-01T20:45:57.334Z,8.91
2023-04-01T20:49:26.103Z,8.97
2023-04-01T20:52:16.151Z,8.92
2023-04-01T20:55:14.636Z,8.93
2023-04-01T20:58:11.476Z,8.98
2023-04-01T21:01:21.951Z,8.95
2023-04-01T21:04:59.069Z,8.87
2023-04-01T21:07:56.918Z,8.87
2023-04-01T21:11:09.580Z,8.77
2023-04-01T21:14:01.838Z,8.81
2023-04-01T21:17:15.765Z,8.84
2023-04-01T21:20:30.426Z,8.71
2023-04-01T21:23:35.410Z,8.85
2023-04-01T21:26:43.663Z,8.86
2023-04-01T21:29:58.697Z,8.95
2023-04-01T21:33:08.574Z,8.99
2023-04-01T21:36:06.965Z,8.98
2023-04-01T21:39:16.369Z,9.03
2023-04-01T21:42:41.696Z,8.99
2023-04-01T21:45:57.903Z,8.99
2023-04-01T21:49:10.067Z,8.94
2023-04-01T21:52:20.964Z,8.94
2023-04-01T21:55:19.656Z,8.92
2023-04-01T21:58:31.104Z,8.94
2023-04-01T22:01:48.695Z,8.92
2023-04-01T22:04:53.808Z,8.89
2023-04-01T22:08:02.111Z,8.98
2023-04-01T22:10:59.842Z,8.99
2023-04-01T22:14:05.532Z,9.00
2023-04-01T22:16:58.688Z,8.95
2023-04-01T22:20:06.460Z,8.94
2023-04-01T22:22:58.771Z,8.94
2023-04-01T22:25:53.371Z,8.93
2023-04-01T22:28:53.643Z,8.90
2023-04-01T22:32:04.150Z,8.99
2023-04-01T22:35:33.821Z,9.00
2023-04-01T22:38:56.878Z,8.90
2023-04-01T22:41:51.234Z,8.90
2023-04-01T22:44:43.995Z,8.96
2023-04-01T22:47:52.454Z,9.02
2023-04-01T22:50:54.418Z,8.98
2023-04-01T22:53:49.875Z,9.01
2023-04-01T22:56:47.458Z,8.98
2023-04-01T22:59:46.265Z,9.01
2023-04-01T23:02:48.006Z,9.01
2023-04-01T23:05:40.498Z,9.02
2023-04-01T23:08:39.888Z,9.01
2023-04-01T23:11:37.255Z,8.92
2023-04-01T23:14:34.937Z,8.96
2023-04-01T23:17:36.724Z,9.03
2023-04-01T23:20:47.281Z,8.94
2023-04-01T23:23:49.610Z,9.02
2023-04-01T23:26:39.693Z,9.06
2023-04-01T23:29:26.991Z,9.03
2023-04-01T23:32:33.674Z,9.03
2023-04-01T23:35:20.306Z,8.82
2023-04-01T23:38:09.349Z,9.04
2023-04-01T23:40:56.530Z,8.96
2023-04-01T23:43:44.802Z,8.95
2023-04-01T23:46:34.880Z,8.90
2023-04-01T23:49:29.513Z,8.99
2023-04-01T23:52:23.212Z,8.99
2023-04-01T23:55:22.749Z,8.95
2023-04-01T23:58:19.555Z,9.05
